EHAM/AMS METAR and TAF weather

Enter ICAO airport designator
Station Type Date Time Source
EHAM METAR 2021/04/17 03:25 UTC NOAA

EHAM 170325Z 01004KT CAVOK 03/01 Q1028 NOSIG


Station Type Date Time Source
EHAM Decoded METAR 2021/04/17 03:25 UTC NOAA

Amsterdam Airport Schiphol, Netherlands (EHAM) 52-18N 004-46E -2M
Apr 16, 2021 - 11:25 PM EDT / 2021.04.17 0325 UTC
Wind: from the N (010 degrees) at 5 MPH (4 KT):0
Visibility: greater than 7 mile(s):0
Temperature: 37 F (3 C)
Dew Point: 33 F (1 C)
Relative Humidity: 86%
Pressure (altimeter): 30.36 in. Hg (1028 hPa)
ob: EHAM 170325Z 01004KT CAVOK 03/01 Q1028 NOSIG
cycle: 3

Station Type Date Time Source
EHAM TAF 2021/04/16 18:27 UTC NOAA

TAF TAF EHAM 161701Z 1618/1724 01012KT CAVOK
BECMG 1618/1621 01006KT
BECMG 1708/1711 03011KT SCT040
BECMG 1718/1721 35005KT CAVOK

Example: see airport list